CloseHelpProblem

Lions Burley Spudman

07/28/07


PlBibNameRepresenting Age DivisionLapsFinal TimeTime BackPaceAdjustmentSwimT1BikeT2Run
1703Greg TAYLERHEBER CITY UT USA06 M 40 - 44501:52:02.00+00:00:00.0000:13:36.79000:01:59.81000:56:21.00000:01:18.15000:38:46.250
2621Michael MAMALESSALT LAKE CITY UT USA06 M 40 - 44501:56:27.31+00:04:25.3100:15:53.41000:01:14.59000:57:12.71000:00:51.83000:41:14.770
3675Rex SHUPEKAYSVILLE UT USA06 M 40 - 44501:58:57.29+00:06:55.2900:16:22.84000:02:00.02000:57:55.41000:01:37.36000:41:01.660
4656Adam DEWAALSLC UT USA06 M 40 - 44502:06:44.39+00:14:42.3900:18:56.14000:02:18.11001:00:17.95000:01:42.19000:43:30.000
5681Dirk JEFFSDRAPER UT USA06 M 40 - 44502:09:28.56+00:17:26.5600:19:02.51000:02:02.62001:01:12.72000:01:21.84000:45:48.870
6628Jeff DOLLOFF-HOLTWEST VALLEY CITY UT USA06 M 40 - 44502:09:43.09+00:17:41.0900:13:58.13000:02:18.77001:03:48.85000:01:33.74000:48:03.600
7641Dave SHARPSALT LAKE CITY UT USA06 M 40 - 44502:09:53.41+00:17:51.4100:20:31.03000:02:34.35000:58:05.74000:02:19.69000:46:22.600
8664Chris HARDSALT LAKE CITY UT USA06 M 40 - 44502:10:53.29+00:18:51.2900:18:25.37000:02:00.72001:00:09.29000:03:52.42000:46:25.490
9734Bart CONRADJACKSON WY USA06 M 40 - 44502:11:33.83+00:19:31.8300:17:57.72000:01:36.38001:03:54.54000:01:00.89000:47:04.300
10651Mahana FISHERBLANDING UT USA06 M 40 - 44502:11:44.02+00:19:42.0200:19:24.22000:04:02.95000:58:42.68000:01:24.13000:48:10.040
11702Carl VAN GILSST. GEORGE UT USA06 M 40 - 44502:13:52.79+00:21:50.7900:19:55.96000:02:54.05001:02:00.71000:02:01.39000:47:00.680
12685John KIMBALLSALT LAKE CITY UT USA06 M 40 - 44502:14:13.94+00:22:11.9400:17:55.68000:02:51.02001:00:04.70000:02:24.80000:50:57.740
13678Karl LINCOLNSANDY UT USA06 M 40 - 44502:18:01.21+00:25:59.2100:16:10.16000:02:36.80001:07:20.03000:02:00.07000:49:54.150
14640Miles MCCRACKENALPINE UT USA06 M 40 - 44502:20:20.76+00:28:18.7600:18:15.58000:03:13.11001:04:24.97000:02:32.59000:51:54.510
15698Conrad SMITHSANDY UT USA06 M 40 - 44502:20:55.83+00:28:53.8300:21:30.06000:03:43.92001:07:43.30000:03:06.35000:44:52.200
16711Brad MERTZSPRINGVILLE UT USA06 M 40 - 44502:20:58.04+00:28:56.0400:18:51.56000:04:43.93001:08:02.25000:02:29.04000:46:51.260
17649Scott STEINSALT LAKE CITY UT USA06 M 40 - 44502:21:28.79+00:29:26.7900:19:20.56000:01:56.20001:06:25.73000:01:34.47000:52:11.830
18637Dave ASHBYSPRINGVILLE UT USA06 M 40 - 44502:21:33.95+00:29:31.9500:19:04.37000:02:51.96001:02:58.61000:02:18.05000:54:20.960
19710William TINGEYKAYSVILLE UT USA06 M 40 - 44502:21:42.68+00:29:40.6800:19:36.48000:03:14.28001:07:20.05000:01:55.80000:49:36.070
20631Steven BERRYOREM UT USA06 M 40 - 44502:21:51.99+00:29:49.9900:18:36.84000:02:36.95001:05:56.43000:01:37.65000:53:04.120
21663Randy SCOTTSOUTH JORDAN UT USA06 M 40 - 44502:21:52.05+00:29:50.0500:18:27.36000:02:42.57001:06:00.41000:01:36.67000:53:05.040
22736Tom STOCKHAMHOLLADAY UT USA06 M 40 - 44502:22:32.35+00:30:30.3500:16:55.78000:02:36.69001:05:19.42000:02:09.08000:55:31.380
23709Daniel HARPERPROVO UT USA06 M 40 - 44502:22:35.57+00:30:33.5700:17:37.21000:04:22.33001:09:04.05000:02:07.65000:49:24.330
24670Phillip GOOLDDRAPER UT USA06 M 40 - 44502:23:34.97+00:31:32.9700:19:31.82000:03:40.07001:06:24.36000:03:09.89000:50:48.830
25665Bob ZANETTIPARK CITY UT USA06 M 40 - 44502:23:37.51+00:31:35.5100:19:42.48000:02:58.40001:04:55.17000:01:45.57000:54:15.890
26692Doug EVANSKAYSVILLE UT USA06 M 40 - 44502:23:52.13+00:31:50.1300:19:37.07000:03:59.73001:11:47.96000:02:36.60000:45:50.770
27629Robert PODGORNEYIDAHO FALLS ID USA06 M 40 - 44502:23:52.49+00:31:50.4900:19:47.77000:03:41.65001:07:55.70000:02:30.01000:49:57.360
28741Glen ALLENBURLEY ID USA06 M 40 - 44502:25:00.95+00:32:58.9500:20:40.28000:02:04.18001:04:27.81000:01:54.41000:55:54.270
29682Dale CRANNEYMIDWAY UT USA06 M 40 - 44502:25:18.16+00:33:16.1600:19:10.10000:03:16.70001:02:25.66000:05:46.74000:54:38.960
30699Bradley WILLIAMSTWIN FALLS ID USA06 M 40 - 44502:25:35.30+00:33:33.3000:16:48.67000:03:46.94001:06:28.57000:03:08.79000:55:22.330
31643Dan ALDREDBOISE ID USA06 M 40 - 44502:25:37.38+00:33:35.3800:18:14.98000:04:03.89001:08:59.12000:02:18.16000:52:01.230
32737Ian SPENCERRIVERTON UT USA06 M 40 - 44502:25:53.39+00:33:51.3900:19:48.10000:04:46.86001:12:32.18000:02:07.85000:46:38.400
33739Temp PATTERSONBURLEY ID USA06 M 40 - 44502:26:13.20+00:34:11.2000:19:19.19000:04:22.50001:03:59.83000:01:42.65000:56:49.030
34742Steve OSTLERSALT LAKE CITY UT USA06 M 40 - 44502:27:02.91+00:35:00.9100:21:56.47000:03:59.29001:11:12.89000:01:48.54000:48:05.720
35662Jeff CLEGGJEROME ID USA06 M 40 - 44502:27:14.10+00:35:12.1000:20:46.91000:03:14.38001:09:11.54000:02:12.07000:51:49.200
36674Paul KORTHWEST JORDAN UT USA06 M 40 - 44502:27:45.79+00:35:43.7900:18:59.22000:03:12.16001:09:19.92000:02:58.82000:53:15.670
37694Jon MOENEW YORK NY USA06 M 40 - 44502:27:46.22+00:35:44.2200:20:11.26000:02:32.38001:11:28.17000:02:23.37000:51:11.040
38723Dan SORENSENSALT LAKE CITY UT USA06 M 40 - 44502:27:47.24+00:35:45.2400:21:55.38000:03:57.09001:13:18.16000:01:10.42000:47:26.190
39622Dixon HOLMESPROVO UT USA06 M 40 - 44502:28:26.30+00:36:24.3000:22:29.03000:03:28.38001:07:35.04000:02:25.89000:52:27.960
40691Lonnie HUNTERDRAPER UT USA06 M 40 - 44502:28:54.77+00:36:52.7700:18:22.75000:02:51.40001:10:44.00000:02:10.46000:54:46.160
41726Gregg GREERDRAPER UT USA06 M 40 - 44502:29:32.96+00:37:30.9600:20:32.35000:03:01.33001:05:16.48000:02:47.07000:57:55.730
42683Robert TIMPANYRIGBY ID USA06 M 40 - 44502:30:09.48+00:38:07.4800:17:16.54000:02:56.15001:10:37.51000:03:15.44000:56:03.840
43743David COOKPARK CITY UT USA06 M 40 - 44502:30:52.14+00:38:50.1400:19:19.02000:02:50.36001:06:41.64000:01:56.15001:00:04.970
44630Scott GLENNSTANSBURY PARK UT USA06 M 40 - 44502:31:14.22+00:39:12.2200:20:29.19000:02:33.62001:07:46.30000:01:24.68000:59:00.430
45654Mark ROYLANCEFRUIT HEIGHTS UT USA06 M 40 - 44502:31:45.97+00:39:43.9700:20:19.36000:05:31.78001:08:00.47000:04:07.36000:53:47.000
46676Claes HORNSTRANDTHOUSAND OAKS CA USA06 M 40 - 44502:31:50.81+00:39:48.8100:17:28.99000:05:10.60001:05:04.27000:03:35.55001:00:31.400
47660Glen GUYMONROSEVILLE CA USA06 M 40 - 44502:32:08.15+00:40:06.1500:24:57.65000:04:42.49001:02:43.45000:03:12.35000:56:32.210
48659Curtis EVANSSOUTH JORDAN UT USA06 M 40 - 44502:32:12.70+00:40:10.7000:27:27.71000:03:21.78001:11:44.91000:02:19.57000:47:18.730
49705Joseph MULLINSPOCATELLO ID USA06 M 40 - 44502:32:45.03+00:40:43.0300:20:32.93000:03:43.74001:13:51.99000:01:30.13000:53:06.240
50708Gordon GARRETTLAYTON UT USA06 M 40 - 44502:33:39.34+00:41:37.3400:23:08.27000:03:17.15001:06:26.42000:02:39.77000:58:07.730
51652Kurt FLYGAREALPINE UT USA06 M 40 - 44502:33:42.46+00:41:40.4600:22:52.75000:04:31.30001:08:45.33000:02:15.41000:55:17.670
52715Mick DAINESROY UT USA06 M 40 - 44502:34:10.56+00:42:08.5600:19:33.30000:04:10.80001:11:06.65000:04:10.85000:55:08.960
53714Bret REICHSANDY UT USA06 M 40 - 44502:35:00.62+00:42:58.6200:20:29.98000:02:58.21001:12:17.41000:02:53.19000:56:21.830
54633Mike GARNERDECLO ID USA06 M 40 - 44502:36:09.53+00:44:07.5300:20:05.88000:03:22.13001:09:29.44000:02:04.33001:01:07.750
55666Rich AGRENSOUTH JORDAN UT USA06 M 40 - 44502:36:32.18+00:44:30.1800:17:09.39000:03:40.19001:11:18.10000:02:04.69001:02:19.810
56733Rick MCCORDALPINE UT USA06 M 40 - 44502:36:40.17+00:44:38.1700:23:20.86000:03:34.48001:15:11.48000:02:20.13000:52:13.220
57677Brian HALLBOUNTIFUL UT USA06 M 40 - 44502:37:22.88+00:45:20.8800:19:29.12000:04:59.05001:17:48.49000:01:19.82000:53:46.400
58644Craig WARDSALT LAKE CITY SD USA06 M 40 - 44502:38:33.91+00:46:31.9100:18:54.97000:04:33.58001:10:36.41000:02:28.78001:02:00.170
59746Adam HOWARDLAYTON UT USA06 M 40 - 44502:41:13.02+00:49:11.0200:19:46.65000:05:19.13001:07:58.06000:03:57.08001:04:12.100
60638Bart HANSONRUPERT ID USA06 M 40 - 44502:41:18.82+00:49:16.8200:21:41.62000:05:35.52001:11:14.17000:03:36.79000:59:10.720
61732Todd BARNEYALPINE UT USA06 M 40 - 44502:41:34.02+00:49:32.0200:25:19.98000:08:18.38001:08:50.33000:03:48.39000:55:16.940
62684Coray TATEOREM UT USA06 M 40 - 44502:43:00.20+00:50:58.2000:19:42.17000:05:05.77001:20:33.44000:01:53.78000:55:45.040
63636Todd GROLLFARMINGTON UT USA06 M 40 - 44502:44:50.31+00:52:48.3100:24:06.47000:04:54.14001:15:14.91000:04:24.17000:56:10.620
641643Rob ANDRALEHI UT USA06 M 40 - 44502:45:10.50+00:53:08.5000:23:41.96000:04:08.84001:12:37.34000:01:52.24001:02:50.120
65632Scott FROGLEYDRAPER UT USA06 M 40 - 44502:45:39.35+00:53:37.3500:20:41.44000:03:10.06001:09:53.28000:04:10.63001:07:43.940
66687Todd WATTSST. GEORGE UT USA06 M 40 - 44502:46:01.15+00:53:59.1500:21:17.57000:03:04.93001:11:04.08000:02:57.65001:07:36.920
67671Nate ALDERSALT LAKE CITY UT USA06 M 40 - 44502:46:25.50+00:54:23.5000:22:02.27000:03:46.57001:13:47.11000:02:24.56001:04:24.990
68745R THOMPSONSALT LAKE CITY UT USA06 M 40 - 44502:46:54.55+00:54:52.5500:23:21.29000:04:10.35001:19:05.13000:03:15.04000:57:02.740
69706Kyle HARWARDFARMINGTON UT USA06 M 40 - 44502:46:55.05+00:54:53.0500:21:53.07000:04:26.46001:19:17.30000:03:31.53000:57:46.690
70740Dominic BRIALEHI UT USA06 M 40 - 44502:47:33.91+00:55:31.9100:21:20.09000:03:47.64001:18:51.84000:03:30.00001:00:04.340
71735J Lance DOWDLESHERWOOD OR USA06 M 40 - 44502:47:49.98+00:55:47.9800:23:59.15000:03:53.57001:14:57.28000:03:47.87001:01:12.110
72645Richard MATHESONLINDON UT USA06 M 40 - 44502:48:56.48+00:56:54.4800:20:51.81000:04:24.61001:11:23.88000:03:06.14001:09:10.040
73712Jeff THOMASDRAPER UT USA06 M 40 - 44502:49:03.11+00:57:01.1100:19:12.85000:04:51.46001:11:21.32000:02:43.07001:10:54.410
74648Jared DOWDLECHANDLER AZ USA06 M 40 - 44502:49:57.84+00:57:55.8400:25:46.12000:07:54.46001:16:20.56000:01:28.45000:58:28.250
75624Robert BAKERLINDON UT USA06 M 40 - 44502:50:08.87+00:58:06.8700:24:50.24000:01:21.96001:19:22.77000:01:25.49001:03:08.410
76669Alan JOHNSONCEDAR HILLS UT USA06 M 40 - 44502:50:09.00+00:58:07.0000:24:12.58000:05:15.88001:16:14.40000:01:38.34001:02:47.800
77713Brent DIXONSHERWOOD OR USA06 M 40 - 44502:50:20.94+00:58:18.9400:20:36.45000:03:26.47001:17:36.55000:03:10.64001:05:30.830
78623Cody LASLEYSYRACUSE UT USA06 M 40 - 44502:51:31.89+00:59:29.8900:20:28.73000:02:54.31001:16:21.65000:02:09.73001:09:37.470
79672Fred STURGELLHENDERSON CO USA06 M 40 - 44502:51:59.66+00:59:57.6600:23:03.03000:05:43.85001:20:40.10000:02:37.93000:59:54.750
80679Todd RUSHTONRUPERT ID USA06 M 40 - 44502:52:34.74+01:00:32.7400:20:53.80000:04:53.84001:19:47.35000:02:33.51001:04:26.240
81625Roger THOMSALT LAKE CITY UT USA06 M 40 - 44502:53:35.32+01:01:33.3200:25:15.46000:05:56.92001:11:17.43000:04:35.95001:06:29.560
82655Carl PETERSONSANDY UT USA06 M 40 - 44502:54:20.11+01:02:18.1100:20:38.71000:03:21.31001:10:08.32000:02:06.04001:18:05.730
83696Roger DAYTONOREM UT USA06 M 40 - 44502:54:32.20+01:02:30.2000:25:48.81000:05:48.98001:11:11.81000:03:16.18001:08:26.420
84725Thomas LINDSEYSPRINGVILLE UT USA06 M 40 - 44502:54:58.49+01:02:56.4900:25:35.34000:03:21.62001:12:39.48000:02:19.36001:11:02.690
85704Scott MERVINSALT LAKE CITY UT USA06 M 40 - 44502:56:32.93+01:04:30.9300:24:55.37000:05:04.87001:09:45.63000:03:35.02001:13:12.040
86642David WARDSPOKANE WA USA06 M 40 - 44503:11:27.89+01:19:25.8900:21:27.00000:05:16.47001:32:04.43000:01:48.00001:10:51.990
87635John MORGANOREM UT USA06 M 40 - 44503:11:32.28+01:19:30.2800:25:36.08000:07:05.70001:29:53.18000:03:07.69001:05:49.630
88722Roger TAYLORLEHI UT USA06 M 40 - 44503:14:07.16+01:22:05.1600:25:10.92000:03:57.94001:23:09.12000:02:34.01001:19:15.170
89730Kent HANSENSANDY UT USA06 M 40 - 44503:25:17.48+01:33:15.4800:53:57.19000:02:30.26001:08:14.77000:02:44.61001:17:50.650
901640Tom KITCHENPLEASANT GROVE UT USA06 M 40 - 44503:36:17.45+01:44:15.4500:29:01.82000:05:24.68001:24:46.92000:02:09.25001:34:54.780
91818Scott ROGERSRUPERT ID USA06 M 40 - 44503:43:30.31+01:51:28.3100:22:25.01000:05:59.51001:36:36.38000:05:21.22001:33:08.190
639Mark ALSUPBOISE ID USA06 M 40 - 440DNS
658Steven ANDERSONEAGLE ID USA06 M 40 - 440DNS
697Chad BAIRDPROVO UT USA06 M 40 - 440DNS
668Jerry COOKLEHI UT USA06 M 40 - 440DNS
701Todd DRIGGSHIGHLAND UT USA06 M 40 - 440DNS
718Alan ENCEFRUIT HEIGHTS UT USA06 M 40 - 440DNS
673David FABERSALT LAKE CITY UT USA06 M 40 - 440DNS
650Jonathan GARDNERWEST JORDAN UT USA06 M 40 - 440DNS
634Jeff GEISTTWIN FALLS ID USA06 M 40 - 440DNS
646Glade GENTRYDECLO ID USA06 M 40 - 440DNS
667Jeff GERKESANDY UT USA06 M 40 - 440DNS
661Darryll GILLILANDSALT LAKE CITY UT USA06 M 40 - 440DNS
729Craig HALELEHI UT USA06 M 40 - 440DNS
647Stephen HALVERSONDRAPER UT USA06 M 40 - 440DNS
720Lloyd JENSENPOCATELLO ID USA06 M 40 - 440DNS
728Rees JENSENSANDY UT USA06 M 40 - 440DNS
653Todd LEANYLAS VEGAS NV USA06 M 40 - 440DNS
717Joel LEITHEADMURRAY UT USA06 M 40 - 440DNS
690Steven LINFORDELK RIDGE UT USA06 M 40 - 440DNS
738Shane MACEBOISE ID USA06 M 40 - 440DNS
719Sasan MOATAMEDHOLLADAY UT USA06 M 40 - 440DNS
689Tracy MOBLEYRIGBY ID USA06 M 40 - 440DNS
700Jon MOENEW YORK NY USA06 M 40 - 440DNS
731Andrew MONTGOMERYSALT LAKE CITY UT USA06 M 40 - 440DNS
724Martin MORENOALPINE UT USA06 M 40 - 440DNS
626Darin NEIWERTNINE MILE FALLS WA USA06 M 40 - 440DNS
727Jeffrey OLSENKAYSVILLE UT USA06 M 40 - 440DNS
707Bryan PARKSOUTH JORDAN UT USA06 M 40 - 440DNS
688Dan PARKINSONEAGLE ID USA06 M 40 - 440DNS
627David PRUETZRIVERTON UT USA06 M 40 - 440DNS
721Brian ROBINSNORTH SALT LAKE UT USA06 M 40 - 440DNS
680Michael SHELTONPLEASANT GROVE UT USA06 M 40 - 440DNS
693James WALKERHIGHLAND UT USA06 M 40 - 440DNS
686Shawn WARDSTANSBURY PARK UT USA06 M 40 - 440DNS
620William YEAGERDRAPER UT USA06 M 40 - 440DNS